Skip Navigation LinksHome page > Weather > Current weather Skip Navigation Links

Current Weather

San Francisco International, San Francisco

For information only: do not use for flight planning or navigation.
Latest weather
Observation time Tuesday, February 21, 2017 11:56 PM PST
Local time Wednesday, February 22, 2017 12:24 AM PST
Flight conditions Visual Meteorological Conditions
Winds
Wind direction West-Northwest (290°)
Wind speed 5 mph
Visibility 10 mi.
Sky condition
Ceiling unlimited
Cloud layer few clouds 2,600 ft.
Temperature 50°F
Dewpoint 44°F
Altimeter 30.26 in.Hg
Derived measurements
Relative humidity 80%
Wind chill 48°F
Density altitude -831 ft.
Sea-level pressure 30.26 in.Hg
Climate data
Temperature minimum, last 24 hours 50°F
Temperature maximum, last 24 hours 61°F
Remarks
System requires maintenance.
Automated weather observing station with precipitation discriminator.
METAR KSFO 220756Z 29004KT 10SM FEW026 10/07 A3026 RMK AO2 SLP247 T01000067 401610100 $

Settings

Location code

InnerDrive.Weather 4.0.6144.1 Release CLR 4.0.30319.34209
Copyright ©2015 Inner Drive Technology. All rights reserved. Portions Copyright ©1986-2015 David Braverman.

Find weather

Site navigation


Skip Navigation Links

Place info

Page info

PayPal - The safer, easier way to pay online!

Return home.

Copyright ©2017 Inner Drive Technology. Purveyors of fine, hand-crafted computer software. Page printed 2017-02-22T08:24:23 UTC.